sensor_id;sensor_type;location;lat;lon;timestamp;P1;durP1;ratioP1;P2;durP2;ratioP2
4756;SDS011;2392;52.578;13.426;2023-11-21T00:02:13;39.50;;;14.63;;
4756;SDS011;2392;52.578;13.426;2023-11-21T00:04:40;35.53;;;14.87;;
4756;SDS011;2392;52.578;13.426;2023-11-21T00:07:08;37.60;;;15.57;;
4756;SDS011;2392;52.578;13.426;2023-11-21T00:09:34;34.97;;;15.30;;
4756;SDS011;2392;52.578;13.426;2023-11-21T00:12:01;37.43;;;15.43;;
4756;SDS011;2392;52.578;13.426;2023-11-21T00:14:28;39.90;;;15.70;;
4756;SDS011;2392;52.578;13.426;2023-11-21T00:16:55;34.57;;;15.20;;
4756;SDS011;2392;52.578;13.426;2023-11-21T00:19:21;38.67;;;15.13;;
4756;SDS011;2392;52.578;13.426;2023-11-21T00:21:48;41.00;;;15.47;;
4756;SDS011;2392;52.578;13.426;2023-11-21T00:24:16;36.80;;;16.50;;
4756;SDS011;2392;52.578;13.426;2023-11-21T00:26:43;42.07;;;15.10;;
4756;SDS011;2392;52.578;13.426;2023-11-21T00:29:10;47.23;;;16.10;;
4756;SDS011;2392;52.578;13.426;2023-11-21T00:31:37;45.80;;;18.03;;
4756;SDS011;2392;52.578;13.426;2023-11-21T00:34:04;49.90;;;18.17;;
4756;SDS011;2392;52.578;13.426;2023-11-21T00:36:33;52.03;;;18.27;;
4756;SDS011;2392;52.578;13.426;2023-11-21T00:38:59;49.53;;;18.10;;
4756;SDS011;2392;52.578;13.426;2023-11-21T00:41:30;59.00;;;21.30;;
4756;SDS011;2392;52.578;13.426;2023-11-21T00:43:56;64.40;;;21.00;;
4756;SDS011;2392;52.578;13.426;2023-11-21T00:46:24;60.43;;;21.17;;
4756;SDS011;2392;52.578;13.426;2023-11-21T00:48:52;58.00;;;23.30;;
4756;SDS011;2392;52.578;13.426;2023-11-21T00:51:19;60.67;;;23.40;;
4756;SDS011;2392;52.578;13.426;2023-11-21T00:53:46;60.37;;;24.20;;
4756;SDS011;2392;52.578;13.426;2023-11-21T00:56:13;61.87;;;24.07;;
4756;SDS011;2392;52.578;13.426;2023-11-21T00:58:42;65.03;;;24.87;;
4756;SDS011;2392;52.578;13.426;2023-11-21T01:01:12;64.77;;;25.10;;
4756;SDS011;2392;52.578;13.426;2023-11-21T01:03:39;67.33;;;25.87;;
4756;SDS011;2392;52.578;13.426;2023-11-21T01:06:06;70.50;;;25.73;;
4756;SDS011;2392;52.578;13.426;2023-11-21T01:08:33;66.73;;;24.93;;
4756;SDS011;2392;52.578;13.426;2023-11-21T01:11:01;70.07;;;26.30;;
4756;SDS011;2392;52.578;13.426;2023-11-21T01:13:27;71.40;;;26.40;;
4756;SDS011;2392;52.578;13.426;2023-11-21T01:15:56;73.40;;;25.93;;
4756;SDS011;2392;52.578;13.426;2023-11-21T01:18:22;72.53;;;26.80;;
4756;SDS011;2392;52.578;13.426;2023-11-21T01:20:50;66.53;;;24.73;;
4756;SDS011;2392;52.578;13.426;2023-11-21T01:23:18;70.90;;;23.93;;
4756;SDS011;2392;52.578;13.426;2023-11-21T01:25:45;67.33;;;22.50;;
4756;SDS011;2392;52.578;13.426;2023-11-21T01:28:11;74.47;;;23.80;;
4756;SDS011;2392;52.578;13.426;2023-11-21T01:30:38;66.13;;;23.47;;
4756;SDS011;2392;52.578;13.426;2023-11-21T01:33:06;69.53;;;24.00;;
4756;SDS011;2392;52.578;13.426;2023-11-21T01:35:33;63.83;;;22.37;;
4756;SDS011;2392;52.578;13.426;2023-11-21T01:38:00;52.40;;;20.47;;
4756;SDS011;2392;52.578;13.426;2023-11-21T01:40:28;60.30;;;21.17;;
4756;SDS011;2392;52.578;13.426;2023-11-21T01:42:56;51.80;;;19.13;;
4756;SDS011;2392;52.578;13.426;2023-11-21T01:45:23;47.80;;;16.80;;
4756;SDS011;2392;52.578;13.426;2023-11-21T01:47:50;42.77;;;14.53;;
4756;SDS011;2392;52.578;13.426;2023-11-21T01:50:18;40.60;;;16.17;;
4756;SDS011;2392;52.578;13.426;2023-11-21T01:52:45;39.80;;;13.43;;
4756;SDS011;2392;52.578;13.426;2023-11-21T01:55:12;42.67;;;15.07;;
4756;SDS011;2392;52.578;13.426;2023-11-21T01:57:43;43.83;;;16.27;;
4756;SDS011;2392;52.578;13.426;2023-11-21T02:00:10;40.87;;;13.70;;
4756;SDS011;2392;52.578;13.426;2023-11-21T02:02:41;39.27;;;14.87;;
4756;SDS011;2392;52.578;13.426;2023-11-21T02:05:09;37.53;;;13.53;;
4756;SDS011;2392;52.578;13.426;2023-11-21T02:07:39;37.33;;;13.97;;
4756;SDS011;2392;52.578;13.426;2023-11-21T02:10:06;32.00;;;13.20;;
4756;SDS011;2392;52.578;13.426;2023-11-21T02:12:33;37.80;;;12.53;;
4756;SDS011;2392;52.578;13.426;2023-11-21T02:15:02;29.73;;;10.90;;
4756;SDS011;2392;52.578;13.426;2023-11-21T02:17:30;35.50;;;11.93;;
4756;SDS011;2392;52.578;13.426;2023-11-21T02:19:57;36.37;;;12.17;;
4756;SDS011;2392;52.578;13.426;2023-11-21T02:22:25;33.37;;;12.30;;
4756;SDS011;2392;52.578;13.426;2023-11-21T02:24:58;33.30;;;11.33;;
4756;SDS011;2392;52.578;13.426;2023-11-21T02:27:25;29.80;;;11.00;;
4756;SDS011;2392;52.578;13.426;2023-11-21T02:29:53;30.27;;;11.77;;
4756;SDS011;2392;52.578;13.426;2023-11-21T02:32:20;30.00;;;11.13;;
4756;SDS011;2392;52.578;13.426;2023-11-21T02:34:48;27.07;;;10.10;;
4756;SDS011;2392;52.578;13.426;2023-11-21T02:37:14;26.43;;;10.10;;
4756;SDS011;2392;52.578;13.426;2023-11-21T02:39:41;32.53;;;11.27;;
4756;SDS011;2392;52.578;13.426;2023-11-21T02:42:09;31.13;;;11.40;;
4756;SDS011;2392;52.578;13.426;2023-11-21T02:44:36;28.60;;;10.13;;
4756;SDS011;2392;52.578;13.426;2023-11-21T02:47:03;28.70;;;11.00;;
4756;SDS011;2392;52.578;13.426;2023-11-21T02:49:30;29.00;;;10.43;;
4756;SDS011;2392;52.578;13.426;2023-11-21T02:51:56;26.23;;;10.30;;
4756;SDS011;2392;52.578;13.426;2023-11-21T02:54:23;28.00;;;11.40;;
4756;SDS011;2392;52.578;13.426;2023-11-21T02:56:52;27.83;;;9.90;;
4756;SDS011;2392;52.578;13.426;2023-11-21T02:59:20;27.17;;;10.37;;
4756;SDS011;2392;52.578;13.426;2023-11-21T03:01:46;26.97;;;9.10;;
4756;SDS011;2392;52.578;13.426;2023-11-21T03:04:14;25.60;;;10.30;;
4756;SDS011;2392;52.578;13.426;2023-11-21T03:06:43;29.40;;;10.03;;
4756;SDS011;2392;52.578;13.426;2023-11-21T03:09:10;27.20;;;10.00;;
4756;SDS011;2392;52.578;13.426;2023-11-21T03:11:37;28.67;;;11.17;;
4756;SDS011;2392;52.578;13.426;2023-11-21T03:14:04;27.60;;;11.03;;
4756;SDS011;2392;52.578;13.426;2023-11-21T03:16:33;25.30;;;9.90;;
4756;SDS011;2392;52.578;13.426;2023-11-21T03:19:03;27.37;;;10.13;;
4756;SDS011;2392;52.578;13.426;2023-11-21T03:21:30;25.90;;;9.63;;
4756;SDS011;2392;52.578;13.426;2023-11-21T03:23:56;27.30;;;10.60;;
4756;SDS011;2392;52.578;13.426;2023-11-21T03:26:24;25.63;;;10.57;;
4756;SDS011;2392;52.578;13.426;2023-11-21T03:28:51;25.80;;;10.63;;
4756;SDS011;2392;52.578;13.426;2023-11-21T03:31:18;25.27;;;9.93;;
4756;SDS011;2392;52.578;13.426;2023-11-21T03:33:47;26.23;;;10.10;;
4756;SDS011;2392;52.578;13.426;2023-11-21T03:36:14;27.60;;;10.40;;
4756;SDS011;2392;52.578;13.426;2023-11-21T03:38:41;25.40;;;9.67;;
4756;SDS011;2392;52.578;13.426;2023-11-21T03:41:08;25.97;;;10.30;;
4756;SDS011;2392;52.578;13.426;2023-11-21T03:43:35;27.30;;;12.10;;
4756;SDS011;2392;52.578;13.426;2023-11-21T03:46:02;25.27;;;9.43;;
4756;SDS011;2392;52.578;13.426;2023-11-21T03:48:29;26.90;;;10.60;;
4756;SDS011;2392;52.578;13.426;2023-11-21T03:50:57;27.60;;;10.70;;
4756;SDS011;2392;52.578;13.426;2023-11-21T03:53:23;29.00;;;10.87;;
4756;SDS011;2392;52.578;13.426;2023-11-21T03:55:50;29.57;;;11.40;;
4756;SDS011;2392;52.578;13.426;2023-11-21T03:58:16;25.83;;;10.43;;
4756;SDS011;2392;52.578;13.426;2023-11-21T04:00:43;25.90;;;10.33;;
4756;SDS011;2392;52.578;13.426;2023-11-21T04:03:10;27.00;;;10.50;;
4756;SDS011;2392;52.578;13.426;2023-11-21T04:05:37;27.20;;;11.00;;
4756;SDS011;2392;52.578;13.426;2023-11-21T04:08:05;26.17;;;10.40;;
4756;SDS011;2392;52.578;13.426;2023-11-21T04:10:32;25.70;;;10.37;;
4756;SDS011;2392;52.578;13.426;2023-11-21T04:12:59;24.77;;;10.30;;
4756;SDS011;2392;52.578;13.426;2023-11-21T04:15:25;24.93;;;9.60;;
4756;SDS011;2392;52.578;13.426;2023-11-21T04:17:52;27.43;;;9.63;;
4756;SDS011;2392;52.578;13.426;2023-11-21T04:20:18;26.83;;;11.43;;
4756;SDS011;2392;52.578;13.426;2023-11-21T04:22:45;30.93;;;10.37;;
4756;SDS011;2392;52.578;13.426;2023-11-21T04:25:14;27.23;;;10.53;;
4756;SDS011;2392;52.578;13.426;2023-11-21T04:27:41;27.73;;;10.40;;
4756;SDS011;2392;52.578;13.426;2023-11-21T04:30:09;25.40;;;9.80;;
4756;SDS011;2392;52.578;13.426;2023-11-21T04:32:37;26.93;;;10.73;;
4756;SDS011;2392;52.578;13.426;2023-11-21T04:35:04;26.47;;;9.70;;
4756;SDS011;2392;52.578;13.426;2023-11-21T04:37:31;27.13;;;10.77;;
4756;SDS011;2392;52.578;13.426;2023-11-21T04:39:58;26.83;;;10.90;;
4756;SDS011;2392;52.578;13.426;2023-11-21T04:42:26;27.53;;;10.07;;
4756;SDS011;2392;52.578;13.426;2023-11-21T04:44:54;25.20;;;10.10;;
4756;SDS011;2392;52.578;13.426;2023-11-21T04:47:20;28.63;;;10.00;;
4756;SDS011;2392;52.578;13.426;2023-11-21T04:49:47;25.33;;;9.77;;
4756;SDS011;2392;52.578;13.426;2023-11-21T04:52:13;27.30;;;9.60;;
4756;SDS011;2392;52.578;13.426;2023-11-21T04:54:40;23.83;;;8.70;;
4756;SDS011;2392;52.578;13.426;2023-11-21T04:57:08;25.50;;;9.10;;
4756;SDS011;2392;52.578;13.426;2023-11-21T04:59:36;23.83;;;9.40;;
4756;SDS011;2392;52.578;13.426;2023-11-21T05:02:02;22.93;;;8.93;;
4756;SDS011;2392;52.578;13.426;2023-11-21T05:04:30;31.63;;;8.97;;
4756;SDS011;2392;52.578;13.426;2023-11-21T05:06:56;23.93;;;8.47;;
4756;SDS011;2392;52.578;13.426;2023-11-21T05:09:23;27.73;;;10.43;;
4756;SDS011;2392;52.578;13.426;2023-11-21T05:11:50;25.10;;;9.60;;
4756;SDS011;2392;52.578;13.426;2023-11-21T05:14:18;25.60;;;9.07;;
4756;SDS011;2392;52.578;13.426;2023-11-21T05:16:46;24.50;;;8.93;;
4756;SDS011;2392;52.578;13.426;2023-11-21T05:19:13;27.00;;;9.97;;
4756;SDS011;2392;52.578;13.426;2023-11-21T05:21:39;26.93;;;10.20;;
4756;SDS011;2392;52.578;13.426;2023-11-21T05:24:06;25.93;;;9.70;;
4756;SDS011;2392;52.578;13.426;2023-11-21T05:26:33;25.83;;;9.87;;
4756;SDS011;2392;52.578;13.426;2023-11-21T05:29:00;28.73;;;10.70;;
4756;SDS011;2392;52.578;13.426;2023-11-21T05:31:26;26.03;;;9.93;;
4756;SDS011;2392;52.578;13.426;2023-11-21T05:33:55;27.67;;;10.20;;
4756;SDS011;2392;52.578;13.426;2023-11-21T05:36:22;24.37;;;9.40;;
4756;SDS011;2392;52.578;13.426;2023-11-21T05:38:49;26.57;;;10.97;;
4756;SDS011;2392;52.578;13.426;2023-11-21T05:41:15;25.27;;;9.50;;
4756;SDS011;2392;52.578;13.426;2023-11-21T05:43:42;25.30;;;9.37;;
4756;SDS011;2392;52.578;13.426;2023-11-21T05:46:09;26.30;;;9.80;;
4756;SDS011;2392;52.578;13.426;2023-11-21T05:48:35;24.90;;;9.27;;
4756;SDS011;2392;52.578;13.426;2023-11-21T05:51:04;25.70;;;9.23;;
4756;SDS011;2392;52.578;13.426;2023-11-21T05:53:32;23.70;;;8.37;;
4756;SDS011;2392;52.578;13.426;2023-11-21T05:55:58;25.60;;;8.53;;
4756;SDS011;2392;52.578;13.426;2023-11-21T05:58:25;22.13;;;8.13;;
4756;SDS011;2392;52.578;13.426;2023-11-21T06:00:52;23.40;;;7.97;;
4756;SDS011;2392;52.578;13.426;2023-11-21T06:03:18;22.90;;;8.50;;
4756;SDS011;2392;52.578;13.426;2023-11-21T06:05:45;26.10;;;9.20;;
4756;SDS011;2392;52.578;13.426;2023-11-21T06:08:13;24.27;;;8.70;;
4756;SDS011;2392;52.578;13.426;2023-11-21T06:10:42;24.13;;;9.43;;
4756;SDS011;2392;52.578;13.426;2023-11-21T06:13:08;24.20;;;9.10;;
4756;SDS011;2392;52.578;13.426;2023-11-21T06:15:35;24.77;;;9.00;;
4756;SDS011;2392;52.578;13.426;2023-11-21T06:18:02;23.00;;;7.97;;
4756;SDS011;2392;52.578;13.426;2023-11-21T06:20:30;22.00;;;8.33;;
4756;SDS011;2392;52.578;13.426;2023-11-21T06:22:58;24.00;;;8.30;;
4756;SDS011;2392;52.578;13.426;2023-11-21T06:25:38;21.87;;;8.17;;
4756;SDS011;2392;52.578;13.426;2023-11-21T06:28:05;23.43;;;7.93;;
4756;SDS011;2392;52.578;13.426;2023-11-21T06:30:32;23.10;;;7.77;;
4756;SDS011;2392;52.578;13.426;2023-11-21T06:32:59;22.10;;;8.00;;
4756;SDS011;2392;52.578;13.426;2023-11-21T06:35:26;21.30;;;7.70;;
4756;SDS011;2392;52.578;13.426;2023-11-21T06:37:55;22.60;;;8.07;;
4756;SDS011;2392;52.578;13.426;2023-11-21T06:40:22;24.50;;;8.00;;
4756;SDS011;2392;52.578;13.426;2023-11-21T06:42:51;22.63;;;7.40;;
4756;SDS011;2392;52.578;13.426;2023-11-21T06:45:17;21.73;;;7.53;;
4756;SDS011;2392;52.578;13.426;2023-11-21T06:47:45;21.97;;;7.30;;
4756;SDS011;2392;52.578;13.426;2023-11-21T06:50:11;21.10;;;7.50;;
4756;SDS011;2392;52.578;13.426;2023-11-21T06:52:38;21.53;;;7.47;;
4756;SDS011;2392;52.578;13.426;2023-11-21T06:55:05;22.60;;;7.30;;
4756;SDS011;2392;52.578;13.426;2023-11-21T06:57:34;21.97;;;8.20;;
4756;SDS011;2392;52.578;13.426;2023-11-21T07:00:03;21.70;;;7.60;;
4756;SDS011;2392;52.578;13.426;2023-11-21T07:02:31;22.00;;;7.10;;
4756;SDS011;2392;52.578;13.426;2023-11-21T07:04:58;24.17;;;8.40;;
4756;SDS011;2392;52.578;13.426;2023-11-21T07:07:24;25.77;;;7.90;;
4756;SDS011;2392;52.578;13.426;2023-11-21T07:09:51;22.33;;;7.50;;
4756;SDS011;2392;52.578;13.426;2023-11-21T07:12:18;24.77;;;8.10;;
4756;SDS011;2392;52.578;13.426;2023-11-21T07:14:44;22.10;;;7.23;;
4756;SDS011;2392;52.578;13.426;2023-11-21T07:17:13;24.47;;;8.03;;
4756;SDS011;2392;52.578;13.426;2023-11-21T07:19:42;22.50;;;8.00;;
4756;SDS011;2392;52.578;13.426;2023-11-21T07:22:09;21.30;;;7.10;;
4756;SDS011;2392;52.578;13.426;2023-11-21T07:24:36;23.13;;;7.63;;
4756;SDS011;2392;52.578;13.426;2023-11-21T07:27:03;23.73;;;8.30;;
4756;SDS011;2392;52.578;13.426;2023-11-21T07:29:30;22.10;;;7.33;;
4756;SDS011;2392;52.578;13.426;2023-11-21T07:31:56;24.47;;;9.07;;
4756;SDS011;2392;52.578;13.426;2023-11-21T07:34:24;21.97;;;7.87;;
4756;SDS011;2392;52.578;13.426;2023-11-21T07:36:51;24.20;;;8.47;;
4756;SDS011;2392;52.578;13.426;2023-11-21T07:39:19;24.40;;;7.63;;
4756;SDS011;2392;52.578;13.426;2023-11-21T07:41:46;23.03;;;7.63;;
4756;SDS011;2392;52.578;13.426;2023-11-21T07:44:15;23.47;;;8.50;;
4756;SDS011;2392;52.578;13.426;2023-11-21T07:46:43;23.80;;;9.80;;
4756;SDS011;2392;52.578;13.426;2023-11-21T07:49:10;24.63;;;8.67;;
4756;SDS011;2392;52.578;13.426;2023-11-21T07:51:38;26.93;;;10.97;;
4756;SDS011;2392;52.578;13.426;2023-11-21T07:54:05;26.70;;;10.00;;
4756;SDS011;2392;52.578;13.426;2023-11-21T07:56:31;25.50;;;8.20;;
4756;SDS011;2392;52.578;13.426;2023-11-21T07:58:58;24.03;;;7.97;;
4756;SDS011;2392;52.578;13.426;2023-11-21T08:01:25;23.60;;;8.90;;
4756;SDS011;2392;52.578;13.426;2023-11-21T08:03:53;23.63;;;8.10;;
4756;SDS011;2392;52.578;13.426;2023-11-21T08:06:22;21.37;;;6.70;;
4756;SDS011;2392;52.578;13.426;2023-11-21T08:08:50;23.20;;;8.03;;
4756;SDS011;2392;52.578;13.426;2023-11-21T08:11:16;22.53;;;7.30;;
4756;SDS011;2392;52.578;13.426;2023-11-21T08:13:44;20.80;;;6.80;;
4756;SDS011;2392;52.578;13.426;2023-11-21T08:16:11;19.90;;;5.90;;
4756;SDS011;2392;52.578;13.426;2023-11-21T08:18:38;20.90;;;6.60;;
4756;SDS011;2392;52.578;13.426;2023-11-21T08:21:05;23.60;;;7.13;;
4756;SDS011;2392;52.578;13.426;2023-11-21T08:23:33;23.37;;;8.47;;
4756;SDS011;2392;52.578;13.426;2023-11-21T08:26:01;23.67;;;9.03;;
4756;SDS011;2392;52.578;13.426;2023-11-21T08:28:28;35.47;;;14.90;;
4756;SDS011;2392;52.578;13.426;2023-11-21T08:30:55;21.97;;;8.07;;
4756;SDS011;2392;52.578;13.426;2023-11-21T08:33:22;26.20;;;8.23;;
4756;SDS011;2392;52.578;13.426;2023-11-21T08:35:48;21.80;;;7.00;;
4756;SDS011;2392;52.578;13.426;2023-11-21T08:38:15;23.33;;;6.80;;
4756;SDS011;2392;52.578;13.426;2023-11-21T08:40:42;23.00;;;8.53;;
4756;SDS011;2392;52.578;13.426;2023-11-21T08:43:10;23.13;;;7.73;;
4756;SDS011;2392;52.578;13.426;2023-11-21T08:45:39;24.07;;;7.40;;
4756;SDS011;2392;52.578;13.426;2023-11-21T08:48:06;28.13;;;8.20;;
4756;SDS011;2392;52.578;13.426;2023-11-21T08:50:33;26.27;;;8.07;;
4756;SDS011;2392;52.578;13.426;2023-11-21T08:53:01;22.30;;;7.53;;
4756;SDS011;2392;52.578;13.426;2023-11-21T08:55:28;25.50;;;8.30;;
4756;SDS011;2392;52.578;13.426;2023-11-21T08:57:54;28.00;;;8.90;;
4756;SDS011;2392;52.578;13.426;2023-11-21T09:00:22;24.27;;;7.47;;
4756;SDS011;2392;52.578;13.426;2023-11-21T09:02:49;26.30;;;10.07;;
4756;SDS011;2392;52.578;13.426;2023-11-21T09:05:16;27.37;;;9.50;;
4756;SDS011;2392;52.578;13.426;2023-11-21T09:07:44;26.80;;;8.67;;
4756;SDS011;2392;52.578;13.426;2023-11-21T09:10:13;24.57;;;8.10;;
4756;SDS011;2392;52.578;13.426;2023-11-21T09:12:40;26.77;;;7.70;;
4756;SDS011;2392;52.578;13.426;2023-11-21T09:15:08;29.33;;;9.77;;
4756;SDS011;2392;52.578;13.426;2023-11-21T09:17:38;27.93;;;9.13;;
4756;SDS011;2392;52.578;13.426;2023-11-21T09:20:05;35.13;;;10.20;;
4756;SDS011;2392;52.578;13.426;2023-11-21T09:22:35;26.27;;;8.50;;
4756;SDS011;2392;52.578;13.426;2023-11-21T09:25:01;31.20;;;9.93;;
4756;SDS011;2392;52.578;13.426;2023-11-21T09:27:30;32.33;;;9.50;;
4756;SDS011;2392;52.578;13.426;2023-11-21T09:29:56;26.80;;;9.13;;
4756;SDS011;2392;52.578;13.426;2023-11-21T09:32:24;29.63;;;9.17;;
4756;SDS011;2392;52.578;13.426;2023-11-21T09:34:52;26.27;;;8.53;;
4756;SDS011;2392;52.578;13.426;2023-11-21T09:37:20;26.53;;;8.70;;
4756;SDS011;2392;52.578;13.426;2023-11-21T09:39:47;27.87;;;8.10;;
4756;SDS011;2392;52.578;13.426;2023-11-21T09:42:15;24.63;;;8.03;;
4756;SDS011;2392;52.578;13.426;2023-11-21T09:44:48;29.20;;;8.40;;
4756;SDS011;2392;52.578;13.426;2023-11-21T09:47:24;28.53;;;8.10;;
4756;SDS011;2392;52.578;13.426;2023-11-21T09:49:52;30.03;;;8.70;;
4756;SDS011;2392;52.578;13.426;2023-11-21T09:52:22;24.70;;;8.03;;
4756;SDS011;2392;52.578;13.426;2023-11-21T09:54:51;23.10;;;7.20;;
4756;SDS011;2392;52.578;13.426;2023-11-21T09:57:20;30.17;;;7.87;;
4756;SDS011;2392;52.578;13.426;2023-11-21T09:59:49;22.20;;;6.87;;
4756;SDS011;2392;52.578;13.426;2023-11-21T10:02:20;35.00;;;8.80;;
4756;SDS011;2392;52.578;13.426;2023-11-21T10:04:53;23.57;;;7.80;;
4756;SDS011;2392;52.578;13.426;2023-11-21T10:07:20;26.33;;;7.27;;
4756;SDS011;2392;52.578;13.426;2023-11-21T10:09:47;21.77;;;7.00;;
4756;SDS011;2392;52.578;13.426;2023-11-21T10:12:14;24.80;;;7.37;;
4756;SDS011;2392;52.578;13.426;2023-11-21T10:14:42;21.87;;;7.50;;
4756;SDS011;2392;52.578;13.426;2023-11-21T10:17:12;19.47;;;6.23;;
4756;SDS011;2392;52.578;13.426;2023-11-21T10:19:43;20.30;;;6.20;;
4756;SDS011;2392;52.578;13.426;2023-11-21T10:22:14;19.37;;;6.37;;
4756;SDS011;2392;52.578;13.426;2023-11-21T10:24:42;23.07;;;7.23;;
4756;SDS011;2392;52.578;13.426;2023-11-21T10:27:09;19.20;;;6.00;;
4756;SDS011;2392;52.578;13.426;2023-11-21T10:29:35;21.03;;;6.20;;
4756;SDS011;2392;52.578;13.426;2023-11-21T10:32:02;19.70;;;6.50;;
4756;SDS011;2392;52.578;13.426;2023-11-21T10:34:30;18.77;;;5.93;;
4756;SDS011;2392;52.578;13.426;2023-11-21T10:36:57;19.00;;;6.30;;
4756;SDS011;2392;52.578;13.426;2023-11-21T10:39:25;18.80;;;6.30;;
4756;SDS011;2392;52.578;13.426;2023-11-21T10:41:55;21.47;;;6.40;;
4756;SDS011;2392;52.578;13.426;2023-11-21T10:44:22;20.27;;;6.47;;
4756;SDS011;2392;52.578;13.426;2023-11-21T10:46:50;19.30;;;6.20;;
4756;SDS011;2392;52.578;13.426;2023-11-21T10:49:21;20.13;;;6.83;;
4756;SDS011;2392;52.578;13.426;2023-11-21T10:51:49;19.57;;;6.53;;
4756;SDS011;2392;52.578;13.426;2023-11-21T10:54:18;19.70;;;5.63;;
4756;SDS011;2392;52.578;13.426;2023-11-21T10:56:47;19.53;;;6.53;;
4756;SDS011;2392;52.578;13.426;2023-11-21T10:59:16;19.57;;;6.07;;
4756;SDS011;2392;52.578;13.426;2023-11-21T11:01:44;19.47;;;6.10;;
4756;SDS011;2392;52.578;13.426;2023-11-21T11:04:12;19.27;;;6.00;;
4756;SDS011;2392;52.578;13.426;2023-11-21T11:06:42;17.97;;;5.30;;
4756;SDS011;2392;52.578;13.426;2023-11-21T11:09:10;18.97;;;6.00;;
4756;SDS011;2392;52.578;13.426;2023-11-21T11:11:39;24.17;;;6.73;;
4756;SDS011;2392;52.578;13.426;2023-11-21T11:14:08;21.30;;;6.40;;
4756;SDS011;2392;52.578;13.426;2023-11-21T11:16:37;20.30;;;6.30;;
4756;SDS011;2392;52.578;13.426;2023-11-21T11:19:06;19.00;;;5.87;;
4756;SDS011;2392;52.578;13.426;2023-11-21T11:21:35;20.33;;;5.90;;
4756;SDS011;2392;52.578;13.426;2023-11-21T11:24:23;21.73;;;6.00;;
4756;SDS011;2392;52.578;13.426;2023-11-21T11:27:15;21.60;;;6.23;;
4756;SDS011;2392;52.578;13.426;2023-11-21T11:29:53;18.80;;;6.20;;
4756;SDS011;2392;52.578;13.426;2023-11-21T11:32:30;19.27;;;5.77;;
4756;SDS011;2392;52.578;13.426;2023-11-21T11:35:10;19.20;;;5.80;;
4756;SDS011;2392;52.578;13.426;2023-11-21T11:37:43;18.20;;;5.27;;
4756;SDS011;2392;52.578;13.426;2023-11-21T11:40:10;18.20;;;5.20;;
4756;SDS011;2392;52.578;13.426;2023-11-21T11:42:38;18.67;;;5.83;;
4756;SDS011;2392;52.578;13.426;2023-11-21T11:45:18;18.50;;;5.27;;
4756;SDS011;2392;52.578;13.426;2023-11-21T11:47:45;20.40;;;6.13;;
4756;SDS011;2392;52.578;13.426;2023-11-21T11:50:14;18.07;;;5.40;;
4756;SDS011;2392;52.578;13.426;2023-11-21T11:52:42;18.67;;;5.10;;
4756;SDS011;2392;52.578;13.426;2023-11-21T11:55:10;18.30;;;5.17;;
4756;SDS011;2392;52.578;13.426;2023-11-21T11:57:38;18.83;;;5.17;;
4756;SDS011;2392;52.578;13.426;2023-11-21T12:00:09;18.13;;;5.30;;
4756;SDS011;2392;52.578;13.426;2023-11-21T12:02:42;19.17;;;6.70;;
4756;SDS011;2392;52.578;13.426;2023-11-21T12:05:13;20.27;;;5.47;;
4756;SDS011;2392;52.578;13.426;2023-11-21T12:07:44;18.40;;;4.90;;
4756;SDS011;2392;52.578;13.426;2023-11-21T12:10:12;18.53;;;5.30;;
4756;SDS011;2392;52.578;13.426;2023-11-21T12:12:43;21.13;;;5.93;;
4756;SDS011;2392;52.578;13.426;2023-11-21T12:15:11;18.67;;;5.90;;
4756;SDS011;2392;52.578;13.426;2023-11-21T12:17:39;20.20;;;6.60;;
4756;SDS011;2392;52.578;13.426;2023-11-21T12:20:08;18.90;;;5.70;;
4756;SDS011;2392;52.578;13.426;2023-11-21T12:22:41;19.13;;;5.60;;
4756;SDS011;2392;52.578;13.426;2023-11-21T12:25:08;19.53;;;6.00;;
4756;SDS011;2392;52.578;13.426;2023-11-21T12:27:35;18.90;;;6.00;;
4756;SDS011;2392;52.578;13.426;2023-11-21T12:30:02;18.70;;;6.00;;
4756;SDS011;2392;52.578;13.426;2023-11-21T12:32:29;19.10;;;5.53;;
4756;SDS011;2392;52.578;13.426;2023-11-21T12:34:57;20.33;;;5.93;;
4756;SDS011;2392;52.578;13.426;2023-11-21T12:37:25;19.10;;;6.40;;
4756;SDS011;2392;52.578;13.426;2023-11-21T12:39:52;18.77;;;5.80;;
4756;SDS011;2392;52.578;13.426;2023-11-21T12:42:23;19.50;;;6.30;;
4756;SDS011;2392;52.578;13.426;2023-11-21T12:45:05;19.70;;;5.97;;
4756;SDS011;2392;52.578;13.426;2023-11-21T12:47:34;21.43;;;6.43;;
4756;SDS011;2392;52.578;13.426;2023-11-21T12:50:01;20.50;;;6.13;;
4756;SDS011;2392;52.578;13.426;2023-11-21T12:52:32;19.43;;;6.27;;
4756;SDS011;2392;52.578;13.426;2023-11-21T12:54:58;20.80;;;6.77;;
4756;SDS011;2392;52.578;13.426;2023-11-21T12:57:25;25.57;;;6.30;;
4756;SDS011;2392;52.578;13.426;2023-11-21T12:59:56;19.93;;;6.10;;
4756;SDS011;2392;52.578;13.426;2023-11-21T13:02:25;20.30;;;6.37;;
4756;SDS011;2392;52.578;13.426;2023-11-21T13:04:52;20.83;;;6.60;;
4756;SDS011;2392;52.578;13.426;2023-11-21T13:07:19;21.57;;;7.10;;
4756;SDS011;2392;52.578;13.426;2023-11-21T13:09:49;22.70;;;6.30;;
4756;SDS011;2392;52.578;13.426;2023-11-21T13:12:23;20.30;;;6.43;;
4756;SDS011;2392;52.578;13.426;2023-11-21T13:14:50;20.30;;;6.33;;
4756;SDS011;2392;52.578;13.426;2023-11-21T13:17:17;20.77;;;6.43;;
4756;SDS011;2392;52.578;13.426;2023-11-21T13:19:43;20.53;;;6.60;;
4756;SDS011;2392;52.578;13.426;2023-11-21T13:22:10;20.80;;;6.40;;
4756;SDS011;2392;52.578;13.426;2023-11-21T13:24:36;21.67;;;6.93;;
4756;SDS011;2392;52.578;13.426;2023-11-21T13:27:04;21.20;;;7.17;;
4756;SDS011;2392;52.578;13.426;2023-11-21T13:29:32;21.10;;;6.67;;
4756;SDS011;2392;52.578;13.426;2023-11-21T13:32:00;21.00;;;6.77;;
4756;SDS011;2392;52.578;13.426;2023-11-21T13:34:29;22.37;;;7.80;;
4756;SDS011;2392;52.578;13.426;2023-11-21T13:36:57;21.90;;;7.30;;
4756;SDS011;2392;52.578;13.426;2023-11-21T13:39:25;23.40;;;8.10;;
4756;SDS011;2392;52.578;13.426;2023-11-21T13:41:54;20.20;;;6.40;;
4756;SDS011;2392;52.578;13.426;2023-11-21T13:44:23;21.07;;;7.67;;
4756;SDS011;2392;52.578;13.426;2023-11-21T13:46:54;22.97;;;8.17;;
4756;SDS011;2392;52.578;13.426;2023-11-21T13:49:23;25.07;;;9.17;;
4756;SDS011;2392;52.578;13.426;2023-11-21T13:51:51;24.13;;;8.33;;
4756;SDS011;2392;52.578;13.426;2023-11-21T13:54:20;22.97;;;8.40;;
4756;SDS011;2392;52.578;13.426;2023-11-21T13:56:49;24.67;;;9.23;;
4756;SDS011;2392;52.578;13.426;2023-11-21T13:59:15;23.90;;;8.73;;
4756;SDS011;2392;52.578;13.426;2023-11-21T14:01:49;26.27;;;9.17;;
4756;SDS011;2392;52.578;13.426;2023-11-21T14:04:24;27.27;;;10.10;;
4756;SDS011;2392;52.578;13.426;2023-11-21T14:07:05;27.33;;;10.10;;
4756;SDS011;2392;52.578;13.426;2023-11-21T14:09:50;24.47;;;9.77;;
4756;SDS011;2392;52.578;13.426;2023-11-21T14:12:17;26.67;;;10.17;;
4756;SDS011;2392;52.578;13.426;2023-11-21T14:14:44;27.17;;;10.60;;
4756;SDS011;2392;52.578;13.426;2023-11-21T14:17:13;28.37;;;11.00;;
4756;SDS011;2392;52.578;13.426;2023-11-21T14:19:40;29.43;;;11.53;;
4756;SDS011;2392;52.578;13.426;2023-11-21T14:22:08;28.83;;;12.10;;
4756;SDS011;2392;52.578;13.426;2023-11-21T14:24:35;28.00;;;11.80;;
4756;SDS011;2392;52.578;13.426;2023-11-21T14:27:03;28.47;;;12.20;;
4756;SDS011;2392;52.578;13.426;2023-11-21T14:29:30;26.70;;;11.43;;
4756;SDS011;2392;52.578;13.426;2023-11-21T14:32:01;27.87;;;12.23;;
4756;SDS011;2392;52.578;13.426;2023-11-21T14:34:30;31.53;;;12.83;;
4756;SDS011;2392;52.578;13.426;2023-11-21T14:36:56;33.40;;;13.57;;
4756;SDS011;2392;52.578;13.426;2023-11-21T14:39:23;32.90;;;14.30;;
4756;SDS011;2392;52.578;13.426;2023-11-21T14:41:53;31.33;;;13.83;;
4756;SDS011;2392;52.578;13.426;2023-11-21T14:44:21;30.80;;;13.47;;
4756;SDS011;2392;52.578;13.426;2023-11-21T14:46:51;34.77;;;14.60;;
4756;SDS011;2392;52.578;13.426;2023-11-21T14:49:19;31.37;;;13.87;;